sensor_id;sensor_type;location;lat;lon;timestamp;P1;durP1;ratioP1;P2;durP2;ratioP2
7833;SDS011;3962;42.696;23.354;2023-08-30T00:02:21;5.73;;;5.53;;
7833;SDS011;3962;42.696;23.354;2023-08-30T00:04:48;5.40;;;5.20;;
7833;SDS011;3962;42.696;23.354;2023-08-30T00:07:15;4.83;;;4.63;;
7833;SDS011;3962;42.696;23.354;2023-08-30T00:09:43;5.67;;;5.37;;
7833;SDS011;3962;42.696;23.354;2023-08-30T00:12:10;5.67;;;5.47;;
7833;SDS011;3962;42.696;23.354;2023-08-30T00:14:36;5.27;;;5.07;;
7833;SDS011;3962;42.696;23.354;2023-08-30T00:17:04;4.90;;;4.70;;
7833;SDS011;3962;42.696;23.354;2023-08-30T00:19:31;4.67;;;4.47;;
7833;SDS011;3962;42.696;23.354;2023-08-30T00:21:57;4.97;;;4.77;;
7833;SDS011;3962;42.696;23.354;2023-08-30T00:24:24;5.37;;;5.17;;
7833;SDS011;3962;42.696;23.354;2023-08-30T00:26:52;4.67;;;4.47;;
7833;SDS011;3962;42.696;23.354;2023-08-30T00:29:19;5.67;;;5.47;;
7833;SDS011;3962;42.696;23.354;2023-08-30T00:31:46;4.87;;;4.67;;
7833;SDS011;3962;42.696;23.354;2023-08-30T00:34:13;5.57;;;5.37;;
7833;SDS011;3962;42.696;23.354;2023-08-30T00:36:40;5.03;;;4.83;;
7833;SDS011;3962;42.696;23.354;2023-08-30T00:39:07;5.17;;;4.97;;
7833;SDS011;3962;42.696;23.354;2023-08-30T00:41:34;5.97;;;5.77;;
7833;SDS011;3962;42.696;23.354;2023-08-30T00:44:03;5.23;;;5.03;;
7833;SDS011;3962;42.696;23.354;2023-08-30T00:46:30;5.20;;;5.00;;
7833;SDS011;3962;42.696;23.354;2023-08-30T00:48:59;5.10;;;4.90;;
7833;SDS011;3962;42.696;23.354;2023-08-30T00:51:26;5.37;;;5.17;;
7833;SDS011;3962;42.696;23.354;2023-08-30T00:53:53;5.23;;;5.03;;
7833;SDS011;3962;42.696;23.354;2023-08-30T00:56:20;5.20;;;5.00;;
7833;SDS011;3962;42.696;23.354;2023-08-30T00:58:48;5.50;;;5.30;;
7833;SDS011;3962;42.696;23.354;2023-08-30T01:01:17;6.17;;;5.87;;
7833;SDS011;3962;42.696;23.354;2023-08-30T01:03:44;4.80;;;4.60;;
7833;SDS011;3962;42.696;23.354;2023-08-30T01:06:11;4.87;;;4.67;;
7833;SDS011;3962;42.696;23.354;2023-08-30T01:08:38;5.43;;;5.23;;
7833;SDS011;3962;42.696;23.354;2023-08-30T01:11:08;5.20;;;4.90;;
7833;SDS011;3962;42.696;23.354;2023-08-30T01:13:44;5.40;;;5.20;;
7833;SDS011;3962;42.696;23.354;2023-08-30T01:16:19;5.03;;;4.83;;
7833;SDS011;3962;42.696;23.354;2023-08-30T01:18:49;5.30;;;5.10;;
7833;SDS011;3962;42.696;23.354;2023-08-30T01:21:21;5.27;;;5.07;;
7833;SDS011;3962;42.696;23.354;2023-08-30T01:23:58;4.90;;;4.70;;
7833;SDS011;3962;42.696;23.354;2023-08-30T01:26:32;5.27;;;5.07;;
7833;SDS011;3962;42.696;23.354;2023-08-30T01:29:06;4.67;;;4.47;;
7833;SDS011;3962;42.696;23.354;2023-08-30T01:31:35;5.13;;;4.93;;
7833;SDS011;3962;42.696;23.354;2023-08-30T01:34:04;5.27;;;4.97;;
7833;SDS011;3962;42.696;23.354;2023-08-30T01:36:31;5.80;;;5.60;;
7833;SDS011;3962;42.696;23.354;2023-08-30T01:38:59;5.23;;;5.03;;
7833;SDS011;3962;42.696;23.354;2023-08-30T01:41:26;5.83;;;5.63;;
7833;SDS011;3962;42.696;23.354;2023-08-30T01:43:54;5.13;;;4.93;;
7833;SDS011;3962;42.696;23.354;2023-08-30T01:46:25;4.93;;;4.73;;
7833;SDS011;3962;42.696;23.354;2023-08-30T01:48:53;5.57;;;5.37;;
7833;SDS011;3962;42.696;23.354;2023-08-30T01:51:22;5.90;;;5.60;;
7833;SDS011;3962;42.696;23.354;2023-08-30T01:53:51;5.70;;;5.50;;
7833;SDS011;3962;42.696;23.354;2023-08-30T01:56:19;5.90;;;5.67;;
7833;SDS011;3962;42.696;23.354;2023-08-30T01:58:46;4.97;;;4.77;;
7833;SDS011;3962;42.696;23.354;2023-08-30T02:01:13;5.70;;;5.40;;
7833;SDS011;3962;42.696;23.354;2023-08-30T02:03:42;5.37;;;5.17;;
7833;SDS011;3962;42.696;23.354;2023-08-30T02:06:11;5.83;;;5.53;;
7833;SDS011;3962;42.696;23.354;2023-08-30T02:08:41;6.40;;;6.10;;
7833;SDS011;3962;42.696;23.354;2023-08-30T02:11:17;5.33;;;5.13;;
7833;SDS011;3962;42.696;23.354;2023-08-30T02:13:48;6.27;;;5.97;;
7833;SDS011;3962;42.696;23.354;2023-08-30T02:16:19;6.27;;;5.97;;
7833;SDS011;3962;42.696;23.354;2023-08-30T02:18:48;5.80;;;5.57;;
7833;SDS011;3962;42.696;23.354;2023-08-30T02:21:16;5.77;;;5.57;;
7833;SDS011;3962;42.696;23.354;2023-08-30T02:23:43;5.83;;;5.63;;
7833;SDS011;3962;42.696;23.354;2023-08-30T02:26:10;5.80;;;5.50;;
7833;SDS011;3962;42.696;23.354;2023-08-30T02:28:36;5.40;;;5.20;;
7833;SDS011;3962;42.696;23.354;2023-08-30T02:31:04;5.63;;;5.43;;
7833;SDS011;3962;42.696;23.354;2023-08-30T02:33:30;5.57;;;5.37;;
7833;SDS011;3962;42.696;23.354;2023-08-30T02:35:59;5.60;;;5.40;;
7833;SDS011;3962;42.696;23.354;2023-08-30T02:38:26;5.17;;;4.87;;
7833;SDS011;3962;42.696;23.354;2023-08-30T02:40:53;5.67;;;5.37;;
7833;SDS011;3962;42.696;23.354;2023-08-30T02:43:20;5.10;;;4.90;;
7833;SDS011;3962;42.696;23.354;2023-08-30T02:45:47;5.90;;;5.63;;
7833;SDS011;3962;42.696;23.354;2023-08-30T02:48:13;5.60;;;5.30;;
7833;SDS011;3962;42.696;23.354;2023-08-30T02:50:40;5.37;;;5.17;;
7833;SDS011;3962;42.696;23.354;2023-08-30T02:53:08;5.17;;;4.97;;
7833;SDS011;3962;42.696;23.354;2023-08-30T02:55:35;5.13;;;4.93;;
7833;SDS011;3962;42.696;23.354;2023-08-30T02:58:02;5.33;;;5.13;;
7833;SDS011;3962;42.696;23.354;2023-08-30T03:00:29;5.73;;;5.53;;
7833;SDS011;3962;42.696;23.354;2023-08-30T03:02:56;5.53;;;5.33;;
7833;SDS011;3962;42.696;23.354;2023-08-30T03:05:23;5.90;;;5.70;;
7833;SDS011;3962;42.696;23.354;2023-08-30T03:07:50;6.57;;;6.27;;
7833;SDS011;3962;42.696;23.354;2023-08-30T03:10:20;6.10;;;5.80;;
7833;SDS011;3962;42.696;23.354;2023-08-30T03:12:47;5.27;;;5.07;;
7833;SDS011;3962;42.696;23.354;2023-08-30T03:15:13;5.70;;;5.50;;
7833;SDS011;3962;42.696;23.354;2023-08-30T03:17:40;6.10;;;5.80;;
7833;SDS011;3962;42.696;23.354;2023-08-30T03:20:07;5.37;;;5.17;;
7833;SDS011;3962;42.696;23.354;2023-08-30T03:22:35;5.40;;;5.20;;
7833;SDS011;3962;42.696;23.354;2023-08-30T03:25:02;5.77;;;5.47;;
7833;SDS011;3962;42.696;23.354;2023-08-30T03:27:30;5.83;;;5.60;;
7833;SDS011;3962;42.696;23.354;2023-08-30T03:29:58;6.13;;;5.83;;
7833;SDS011;3962;42.696;23.354;2023-08-30T03:32:26;6.60;;;6.30;;
7833;SDS011;3962;42.696;23.354;2023-08-30T03:34:53;7.00;;;6.60;;
7833;SDS011;3962;42.696;23.354;2023-08-30T03:37:19;7.13;;;6.83;;
7833;SDS011;3962;42.696;23.354;2023-08-30T03:39:46;6.53;;;6.23;;
7833;SDS011;3962;42.696;23.354;2023-08-30T03:42:13;7.63;;;7.27;;
7833;SDS011;3962;42.696;23.354;2023-08-30T03:44:41;6.77;;;6.47;;
7833;SDS011;3962;42.696;23.354;2023-08-30T03:47:08;5.67;;;5.47;;
7833;SDS011;3962;42.696;23.354;2023-08-30T03:49:35;6.73;;;6.43;;
7833;SDS011;3962;42.696;23.354;2023-08-30T03:52:03;6.73;;;6.37;;
7833;SDS011;3962;42.696;23.354;2023-08-30T03:54:31;6.67;;;6.37;;
7833;SDS011;3962;42.696;23.354;2023-08-30T03:56:57;7.17;;;6.77;;
7833;SDS011;3962;42.696;23.354;2023-08-30T03:59:24;6.37;;;6.07;;
7833;SDS011;3962;42.696;23.354;2023-08-30T04:01:55;6.27;;;5.97;;
7833;SDS011;3962;42.696;23.354;2023-08-30T04:04:21;7.20;;;6.90;;
7833;SDS011;3962;42.696;23.354;2023-08-30T04:06:49;7.27;;;6.87;;
7833;SDS011;3962;42.696;23.354;2023-08-30T04:09:15;6.77;;;6.47;;
7833;SDS011;3962;42.696;23.354;2023-08-30T04:11:43;7.10;;;6.70;;
7833;SDS011;3962;42.696;23.354;2023-08-30T04:14:10;6.13;;;5.83;;
7833;SDS011;3962;42.696;23.354;2023-08-30T04:16:36;6.63;;;6.33;;
7833;SDS011;3962;42.696;23.354;2023-08-30T04:19:05;7.43;;;7.13;;
7833;SDS011;3962;42.696;23.354;2023-08-30T04:21:31;6.27;;;5.97;;
7833;SDS011;3962;42.696;23.354;2023-08-30T04:23:58;6.93;;;6.63;;
7833;SDS011;3962;42.696;23.354;2023-08-30T04:26:25;6.93;;;6.63;;
7833;SDS011;3962;42.696;23.354;2023-08-30T04:28:52;6.47;;;6.17;;
7833;SDS011;3962;42.696;23.354;2023-08-30T04:31:19;6.53;;;6.23;;
7833;SDS011;3962;42.696;23.354;2023-08-30T04:33:46;6.50;;;6.20;;
7833;SDS011;3962;42.696;23.354;2023-08-30T04:36:14;6.63;;;6.33;;
7833;SDS011;3962;42.696;23.354;2023-08-30T04:38:41;6.23;;;5.93;;
7833;SDS011;3962;42.696;23.354;2023-08-30T04:41:08;6.00;;;5.70;;
7833;SDS011;3962;42.696;23.354;2023-08-30T04:43:35;6.00;;;5.70;;
7833;SDS011;3962;42.696;23.354;2023-08-30T04:46:01;6.83;;;6.53;;
7833;SDS011;3962;42.696;23.354;2023-08-30T04:48:28;6.17;;;5.87;;
7833;SDS011;3962;42.696;23.354;2023-08-30T04:50:59;6.77;;;6.47;;
7833;SDS011;3962;42.696;23.354;2023-08-30T04:53:29;6.27;;;5.97;;
7833;SDS011;3962;42.696;23.354;2023-08-30T04:55:56;6.67;;;6.37;;
7833;SDS011;3962;42.696;23.354;2023-08-30T04:58:23;6.60;;;6.30;;
7833;SDS011;3962;42.696;23.354;2023-08-30T05:00:50;5.73;;;5.53;;
7833;SDS011;3962;42.696;23.354;2023-08-30T05:03:17;7.00;;;6.70;;
7833;SDS011;3962;42.696;23.354;2023-08-30T05:05:46;6.20;;;5.90;;
7833;SDS011;3962;42.696;23.354;2023-08-30T05:08:13;6.53;;;6.23;;
7833;SDS011;3962;42.696;23.354;2023-08-30T05:10:41;8.00;;;7.60;;
7833;SDS011;3962;42.696;23.354;2023-08-30T05:13:09;5.70;;;5.40;;
7833;SDS011;3962;42.696;23.354;2023-08-30T05:15:36;5.30;;;5.10;;
7833;SDS011;3962;42.696;23.354;2023-08-30T05:18:03;7.13;;;6.83;;
7833;SDS011;3962;42.696;23.354;2023-08-30T05:20:31;5.57;;;5.37;;
7833;SDS011;3962;42.696;23.354;2023-08-30T05:23:03;6.90;;;6.60;;
7833;SDS011;3962;42.696;23.354;2023-08-30T05:25:30;6.50;;;6.20;;
7833;SDS011;3962;42.696;23.354;2023-08-30T05:27:58;5.83;;;5.63;;
7833;SDS011;3962;42.696;23.354;2023-08-30T05:30:25;5.97;;;5.73;;
7833;SDS011;3962;42.696;23.354;2023-08-30T05:32:56;5.70;;;5.40;;
7833;SDS011;3962;42.696;23.354;2023-08-30T05:35:23;6.30;;;6.00;;
7833;SDS011;3962;42.696;23.354;2023-08-30T05:37:50;6.17;;;5.87;;
7833;SDS011;3962;42.696;23.354;2023-08-30T05:40:17;6.30;;;6.00;;
7833;SDS011;3962;42.696;23.354;2023-08-30T05:42:44;6.90;;;6.60;;
7833;SDS011;3962;42.696;23.354;2023-08-30T05:45:12;6.67;;;6.37;;
7833;SDS011;3962;42.696;23.354;2023-08-30T05:47:39;6.33;;;6.03;;
7833;SDS011;3962;42.696;23.354;2023-08-30T05:50:06;5.43;;;5.23;;
7833;SDS011;3962;42.696;23.354;2023-08-30T05:52:34;5.13;;;4.93;;
7833;SDS011;3962;42.696;23.354;2023-08-30T05:55:01;6.10;;;5.70;;
7833;SDS011;3962;42.696;23.354;2023-08-30T05:57:27;5.07;;;4.87;;
7833;SDS011;3962;42.696;23.354;2023-08-30T05:59:58;5.77;;;5.57;;
7833;SDS011;3962;42.696;23.354;2023-08-30T06:02:29;5.30;;;5.10;;
7833;SDS011;3962;42.696;23.354;2023-08-30T06:04:56;5.57;;;5.27;;
7833;SDS011;3962;42.696;23.354;2023-08-30T06:07:23;5.27;;;4.97;;
7833;SDS011;3962;42.696;23.354;2023-08-30T06:09:50;6.17;;;5.87;;
7833;SDS011;3962;42.696;23.354;2023-08-30T06:12:17;5.30;;;5.10;;
7833;SDS011;3962;42.696;23.354;2023-08-30T06:14:43;5.77;;;5.47;;
7833;SDS011;3962;42.696;23.354;2023-08-30T06:17:17;5.03;;;4.83;;
7833;SDS011;3962;42.696;23.354;2023-08-30T06:19:45;5.53;;;5.33;;
7833;SDS011;3962;42.696;23.354;2023-08-30T06:22:12;4.97;;;4.77;;
7833;SDS011;3962;42.696;23.354;2023-08-30T06:24:39;5.80;;;5.50;;
7833;SDS011;3962;42.696;23.354;2023-08-30T06:27:07;5.33;;;5.13;;
7833;SDS011;3962;42.696;23.354;2023-08-30T06:29:33;5.63;;;5.43;;
7833;SDS011;3962;42.696;23.354;2023-08-30T06:32:00;5.13;;;4.93;;
7833;SDS011;3962;42.696;23.354;2023-08-30T06:34:27;5.23;;;5.03;;
7833;SDS011;3962;42.696;23.354;2023-08-30T06:36:55;4.67;;;4.47;;
7833;SDS011;3962;42.696;23.354;2023-08-30T06:39:22;4.93;;;4.73;;
7833;SDS011;3962;42.696;23.354;2023-08-30T06:41:49;5.03;;;4.83;;
7833;SDS011;3962;42.696;23.354;2023-08-30T06:44:16;5.30;;;5.10;;
7833;SDS011;3962;42.696;23.354;2023-08-30T06:46:45;5.07;;;4.87;;
7833;SDS011;3962;42.696;23.354;2023-08-30T06:49:12;5.37;;;5.13;;
7833;SDS011;3962;42.696;23.354;2023-08-30T06:51:39;5.93;;;5.63;;
7833;SDS011;3962;42.696;23.354;2023-08-30T06:54:07;4.87;;;4.67;;
7833;SDS011;3962;42.696;23.354;2023-08-30T06:56:35;4.90;;;4.70;;
7833;SDS011;3962;42.696;23.354;2023-08-30T06:59:03;4.73;;;4.53;;
7833;SDS011;3962;42.696;23.354;2023-08-30T07:01:30;4.93;;;4.73;;
7833;SDS011;3962;42.696;23.354;2023-08-30T07:03:56;5.27;;;5.07;;
7833;SDS011;3962;42.696;23.354;2023-08-30T07:06:23;4.97;;;4.77;;
7833;SDS011;3962;42.696;23.354;2023-08-30T07:08:55;4.93;;;4.73;;
7833;SDS011;3962;42.696;23.354;2023-08-30T07:11:23;4.90;;;4.70;;
7833;SDS011;3962;42.696;23.354;2023-08-30T07:13:50;5.43;;;5.13;;
7833;SDS011;3962;42.696;23.354;2023-08-30T07:16:17;5.13;;;4.93;;
7833;SDS011;3962;42.696;23.354;2023-08-30T07:18:44;4.50;;;4.30;;
7833;SDS011;3962;42.696;23.354;2023-08-30T07:21:11;5.50;;;5.20;;
7833;SDS011;3962;42.696;23.354;2023-08-30T07:23:37;5.03;;;4.83;;
7833;SDS011;3962;42.696;23.354;2023-08-30T07:26:05;5.00;;;4.80;;
7833;SDS011;3962;42.696;23.354;2023-08-30T07:28:34;4.90;;;4.70;;
7833;SDS011;3962;42.696;23.354;2023-08-30T07:31:02;4.90;;;4.70;;
7833;SDS011;3962;42.696;23.354;2023-08-30T07:33:30;5.23;;;4.93;;
7833;SDS011;3962;42.696;23.354;2023-08-30T07:35:58;5.37;;;5.13;;
7833;SDS011;3962;42.696;23.354;2023-08-30T07:38:24;4.70;;;4.50;;
7833;SDS011;3962;42.696;23.354;2023-08-30T07:40:51;4.60;;;4.40;;
7833;SDS011;3962;42.696;23.354;2023-08-30T07:43:20;4.77;;;4.57;;
7833;SDS011;3962;42.696;23.354;2023-08-30T07:45:48;4.80;;;4.60;;
7833;SDS011;3962;42.696;23.354;2023-08-30T07:48:15;4.50;;;4.30;;
7833;SDS011;3962;42.696;23.354;2023-08-30T07:50:42;4.67;;;4.47;;
7833;SDS011;3962;42.696;23.354;2023-08-30T07:53:09;4.63;;;4.43;;
7833;SDS011;3962;42.696;23.354;2023-08-30T07:55:36;4.20;;;4.00;;
7833;SDS011;3962;42.696;23.354;2023-08-30T07:58:06;4.10;;;3.90;;
7833;SDS011;3962;42.696;23.354;2023-08-30T08:00:35;3.70;;;3.60;;
7833;SDS011;3962;42.696;23.354;2023-08-30T08:03:04;4.30;;;4.10;;
7833;SDS011;3962;42.696;23.354;2023-08-30T08:05:30;3.73;;;3.60;;
7833;SDS011;3962;42.696;23.354;2023-08-30T08:07:59;4.10;;;3.90;;
7833;SDS011;3962;42.696;23.354;2023-08-30T08:10:28;4.20;;;4.00;;
7833;SDS011;3962;42.696;23.354;2023-08-30T08:12:57;4.50;;;4.30;;
7833;SDS011;3962;42.696;23.354;2023-08-30T08:15:24;4.13;;;3.93;;
7833;SDS011;3962;42.696;23.354;2023-08-30T08:17:51;4.37;;;4.17;;
7833;SDS011;3962;42.696;23.354;2023-08-30T08:20:19;4.13;;;3.93;;
7833;SDS011;3962;42.696;23.354;2023-08-30T08:22:47;4.10;;;3.90;;
7833;SDS011;3962;42.696;23.354;2023-08-30T08:25:14;3.77;;;3.63;;
7833;SDS011;3962;42.696;23.354;2023-08-30T08:27:41;3.80;;;3.70;;
7833;SDS011;3962;42.696;23.354;2023-08-30T08:30:08;3.73;;;3.63;;
7833;SDS011;3962;42.696;23.354;2023-08-30T08:32:36;4.53;;;4.10;;
7833;SDS011;3962;42.696;23.354;2023-08-30T08:35:03;4.13;;;3.97;;
7833;SDS011;3962;42.696;23.354;2023-08-30T08:37:32;3.93;;;3.73;;
7833;SDS011;3962;42.696;23.354;2023-08-30T08:40:03;3.87;;;3.73;;
7833;SDS011;3962;42.696;23.354;2023-08-30T08:42:41;3.73;;;3.63;;
7833;SDS011;3962;42.696;23.354;2023-08-30T08:45:16;3.50;;;3.40;;
7833;SDS011;3962;42.696;23.354;2023-08-30T08:47:46;4.13;;;3.93;;
7833;SDS011;3962;42.696;23.354;2023-08-30T08:50:13;3.80;;;3.70;;
7833;SDS011;3962;42.696;23.354;2023-08-30T08:52:42;4.10;;;3.90;;
7833;SDS011;3962;42.696;23.354;2023-08-30T08:55:09;4.57;;;4.37;;
7833;SDS011;3962;42.696;23.354;2023-08-30T08:57:37;4.30;;;4.10;;
7833;SDS011;3962;42.696;23.354;2023-08-30T09:00:06;4.27;;;4.07;;
7833;SDS011;3962;42.696;23.354;2023-08-30T09:02:34;4.07;;;3.87;;
7833;SDS011;3962;42.696;23.354;2023-08-30T09:05:00;4.07;;;3.87;;
7833;SDS011;3962;42.696;23.354;2023-08-30T09:07:30;3.90;;;3.70;;
7833;SDS011;3962;42.696;23.354;2023-08-30T09:09:59;3.63;;;3.47;;
7833;SDS011;3962;42.696;23.354;2023-08-30T09:12:26;4.47;;;4.27;;
7833;SDS011;3962;42.696;23.354;2023-08-30T09:14:54;4.30;;;4.10;;
7833;SDS011;3962;42.696;23.354;2023-08-30T09:17:22;4.43;;;4.23;;
7833;SDS011;3962;42.696;23.354;2023-08-30T09:19:49;4.00;;;3.80;;
7833;SDS011;3962;42.696;23.354;2023-08-30T09:22:16;4.30;;;4.10;;
7833;SDS011;3962;42.696;23.354;2023-08-30T09:24:43;4.10;;;3.90;;
7833;SDS011;3962;42.696;23.354;2023-08-30T09:27:12;3.83;;;3.73;;
7833;SDS011;3962;42.696;23.354;2023-08-30T09:29:39;4.07;;;3.87;;
7833;SDS011;3962;42.696;23.354;2023-08-30T09:32:09;3.50;;;3.40;;
7833;SDS011;3962;42.696;23.354;2023-08-30T09:34:35;3.60;;;3.50;;
7833;SDS011;3962;42.696;23.354;2023-08-30T09:37:02;3.90;;;3.70;;
7833;SDS011;3962;42.696;23.354;2023-08-30T09:39:29;3.53;;;3.43;;
7833;SDS011;3962;42.696;23.354;2023-08-30T09:41:59;3.70;;;3.60;;
7833;SDS011;3962;42.696;23.354;2023-08-30T09:44:36;3.77;;;3.67;;
7833;SDS011;3962;42.696;23.354;2023-08-30T09:47:08;4.20;;;4.00;;
7833;SDS011;3962;42.696;23.354;2023-08-30T09:49:37;3.73;;;3.63;;
7833;SDS011;3962;42.696;23.354;2023-08-30T09:52:13;4.47;;;4.27;;
7833;SDS011;3962;42.696;23.354;2023-08-30T09:54:56;4.30;;;4.10;;
7833;SDS011;3962;42.696;23.354;2023-08-30T09:57:51;3.87;;;3.77;;
7833;SDS011;3962;42.696;23.354;2023-08-30T10:00:27;4.50;;;4.30;;
7833;SDS011;3962;42.696;23.354;2023-08-30T10:02:54;3.57;;;3.47;;
7833;SDS011;3962;42.696;23.354;2023-08-30T10:05:21;4.57;;;4.37;;
7833;SDS011;3962;42.696;23.354;2023-08-30T10:07:49;4.23;;;4.03;;
7833;SDS011;3962;42.696;23.354;2023-08-30T10:10:19;3.70;;;3.60;;
7833;SDS011;3962;42.696;23.354;2023-08-30T10:12:49;3.93;;;3.83;;
7833;SDS011;3962;42.696;23.354;2023-08-30T10:15:18;4.10;;;3.90;;
7833;SDS011;3962;42.696;23.354;2023-08-30T10:17:48;4.03;;;3.83;;
7833;SDS011;3962;42.696;23.354;2023-08-30T10:20:24;4.20;;;4.00;;
7833;SDS011;3962;42.696;23.354;2023-08-30T10:22:54;4.33;;;4.13;;
7833;SDS011;3962;42.696;23.354;2023-08-30T10:25:24;3.70;;;3.60;;
7833;SDS011;3962;42.696;23.354;2023-08-30T10:27:54;3.83;;;3.67;;
7833;SDS011;3962;42.696;23.354;2023-08-30T10:30:22;3.40;;;3.30;;
7833;SDS011;3962;42.696;23.354;2023-08-30T10:32:52;4.10;;;3.90;;
7833;SDS011;3962;42.696;23.354;2023-08-30T10:35:19;4.07;;;3.80;;
7833;SDS011;3962;42.696;23.354;2023-08-30T10:37:57;3.87;;;3.67;;
7833;SDS011;3962;42.696;23.354;2023-08-30T10:40:26;3.80;;;3.60;;
7833;SDS011;3962;42.696;23.354;2023-08-30T10:42:59;3.93;;;3.77;;
7833;SDS011;3962;42.696;23.354;2023-08-30T10:45:27;3.57;;;3.47;;
7833;SDS011;3962;42.696;23.354;2023-08-30T10:47:56;3.40;;;3.30;;
7833;SDS011;3962;42.696;23.354;2023-08-30T10:50:28;3.60;;;3.50;;
7833;SDS011;3962;42.696;23.354;2023-08-30T10:52:56;3.73;;;3.63;;
7833;SDS011;3962;42.696;23.354;2023-08-30T10:55:23;3.80;;;3.70;;
7833;SDS011;3962;42.696;23.354;2023-08-30T10:57:57;4.13;;;3.93;;
7833;SDS011;3962;42.696;23.354;2023-08-30T11:00:27;3.77;;;3.63;;
7833;SDS011;3962;42.696;23.354;2023-08-30T11:02:54;4.30;;;4.00;;
7833;SDS011;3962;42.696;23.354;2023-08-30T11:05:23;3.80;;;3.70;;
7833;SDS011;3962;42.696;23.354;2023-08-30T11:07:51;4.83;;;4.53;;
7833;SDS011;3962;42.696;23.354;2023-08-30T11:10:20;5.17;;;4.90;;
7833;SDS011;3962;42.696;23.354;2023-08-30T11:12:49;4.40;;;4.20;;
7833;SDS011;3962;42.696;23.354;2023-08-30T11:15:17;4.10;;;3.90;;
7833;SDS011;3962;42.696;23.354;2023-08-30T11:17:44;4.27;;;4.07;;
7833;SDS011;3962;42.696;23.354;2023-08-30T11:20:11;3.73;;;3.63;;
7833;SDS011;3962;42.696;23.354;2023-08-30T11:22:41;4.23;;;4.03;;
7833;SDS011;3962;42.696;23.354;2023-08-30T11:25:09;3.87;;;3.77;;
7833;SDS011;3962;42.696;23.354;2023-08-30T11:27:37;4.37;;;4.13;;
7833;SDS011;3962;42.696;23.354;2023-08-30T11:30:04;4.30;;;4.10;;
7833;SDS011;3962;42.696;23.354;2023-08-30T11:32:33;4.13;;;3.93;;
7833;SDS011;3962;42.696;23.354;2023-08-30T11:35:01;4.37;;;4.17;;
7833;SDS011;3962;42.696;23.354;2023-08-30T11:37:28;4.30;;;4.10;;
7833;SDS011;3962;42.696;23.354;2023-08-30T11:39:56;4.10;;;3.80;;
7833;SDS011;3962;42.696;23.354;2023-08-30T11:42:24;4.17;;;3.97;;
7833;SDS011;3962;42.696;23.354;2023-08-30T11:44:52;4.50;;;4.30;;
7833;SDS011;3962;42.696;23.354;2023-08-30T11:47:19;4.20;;;4.00;;
7833;SDS011;3962;42.696;23.354;2023-08-30T11:49:46;4.23;;;4.03;;
7833;SDS011;3962;42.696;23.354;2023-08-30T11:52:15;3.87;;;3.73;;
7833;SDS011;3962;42.696;23.354;2023-08-30T11:54:45;4.87;;;4.67;;
7833;SDS011;3962;42.696;23.354;2023-08-30T11:57:14;4.70;;;4.43;;
7833;SDS011;3962;42.696;23.354;2023-08-30T11:59:42;4.37;;;4.17;;
7833;SDS011;3962;42.696;23.354;2023-08-30T12:02:09;3.97;;;3.77;;
7833;SDS011;3962;42.696;23.354;2023-08-30T12:04:41;3.57;;;3.47;;
7833;SDS011;3962;42.696;23.354;2023-08-30T12:07:10;3.93;;;3.73;;
7833;SDS011;3962;42.696;23.354;2023-08-30T12:09:48;3.83;;;3.63;;
7833;SDS011;3962;42.696;23.354;2023-08-30T12:12:16;3.93;;;3.73;;
7833;SDS011;3962;42.696;23.354;2023-08-30T12:14:43;4.47;;;4.27;;
7833;SDS011;3962;42.696;23.354;2023-08-30T12:17:13;4.03;;;3.83;;
7833;SDS011;3962;42.696;23.354;2023-08-30T12:19:40;4.20;;;4.00;;
7833;SDS011;3962;42.696;23.354;2023-08-30T12:22:06;3.47;;;3.37;;
7833;SDS011;3962;42.696;23.354;2023-08-30T12:24:40;3.60;;;3.50;;
7833;SDS011;3962;42.696;23.354;2023-08-30T12:27:08;3.50;;;3.40;;
7833;SDS011;3962;42.696;23.354;2023-08-30T12:29:36;3.63;;;3.53;;
7833;SDS011;3962;42.696;23.354;2023-08-30T12:32:03;3.80;;;3.70;;
7833;SDS011;3962;42.696;23.354;2023-08-30T12:34:31;4.07;;;3.87;;
7833;SDS011;3962;42.696;23.354;2023-08-30T12:36:58;3.57;;;3.47;;
7833;SDS011;3962;42.696;23.354;2023-08-30T12:39:27;3.87;;;3.70;;
7833;SDS011;3962;42.696;23.354;2023-08-30T12:41:54;3.60;;;3.50;;
7833;SDS011;3962;42.696;23.354;2023-08-30T12:44:21;3.47;;;3.37;;
7833;SDS011;3962;42.696;23.354;2023-08-30T12:46:49;3.63;;;3.53;;
7833;SDS011;3962;42.696;23.354;2023-08-30T12:49:18;3.90;;;3.73;;
7833;SDS011;3962;42.696;23.354;2023-08-30T12:51:52;4.07;;;3.87;;
7833;SDS011;3962;42.696;23.354;2023-08-30T12:54:19;3.30;;;3.10;;
7833;SDS011;3962;42.696;23.354;2023-08-30T12:56:46;3.80;;;3.60;;
7833;SDS011;3962;42.696;23.354;2023-08-30T12:59:13;3.67;;;3.47;;
7833;SDS011;3962;42.696;23.354;2023-08-30T13:01:40;4.40;;;4.20;;
7833;SDS011;3962;42.696;23.354;2023-08-30T13:04:09;3.60;;;3.50;;
7833;SDS011;3962;42.696;23.354;2023-08-30T13:06:36;3.73;;;3.53;;
7833;SDS011;3962;42.696;23.354;2023-08-30T13:09:03;3.40;;;3.30;;
7833;SDS011;3962;42.696;23.354;2023-08-30T13:11:30;3.57;;;3.47;;
7833;SDS011;3962;42.696;23.354;2023-08-30T13:13:58;3.80;;;3.60;;
7833;SDS011;3962;42.696;23.354;2023-08-30T13:16:25;3.60;;;3.50;;
7833;SDS011;3962;42.696;23.354;2023-08-30T13:18:52;4.10;;;3.90;;
7833;SDS011;3962;42.696;23.354;2023-08-30T13:21:21;4.10;;;3.90;;
7833;SDS011;3962;42.696;23.354;2023-08-30T13:23:50;3.57;;;3.47;;
7833;SDS011;3962;42.696;23.354;2023-08-30T13:26:17;3.43;;;3.33;;
7833;SDS011;3962;42.696;23.354;2023-08-30T13:28:43;4.17;;;3.90;;
7833;SDS011;3962;42.696;23.354;2023-08-30T13:31:10;3.53;;;3.43;;
7833;SDS011;3962;42.696;23.354;2023-08-30T13:33:37;3.83;;;3.53;;
7833;SDS011;3962;42.696;23.354;2023-08-30T13:36:05;4.13;;;3.93;;
7833;SDS011;3962;42.696;23.354;2023-08-30T13:38:33;3.23;;;3.13;;
7833;SDS011;3962;42.696;23.354;2023-08-30T13:41:00;3.73;;;3.53;;
7833;SDS011;3962;42.696;23.354;2023-08-30T13:43:29;3.07;;;2.97;;
7833;SDS011;3962;42.696;23.354;2023-08-30T13:45:56;3.50;;;3.33;;
7833;SDS011;3962;42.696;23.354;2023-08-30T13:48:24;3.30;;;3.20;;
7833;SDS011;3962;42.696;23.354;2023-08-30T13:50:50;3.37;;;3.27;;
7833;SDS011;3962;42.696;23.354;2023-08-30T13:53:17;3.50;;;3.40;;
7833;SDS011;3962;42.696;23.354;2023-08-30T13:55:46;3.40;;;3.30;;
7833;SDS011;3962;42.696;23.354;2023-08-30T13:58:13;3.40;;;3.30;;
7833;SDS011;3962;42.696;23.354;2023-08-30T14:00:40;3.53;;;3.37;;
7833;SDS011;3962;42.696;23.354;2023-08-30T14:03:07;3.37;;;3.27;;
7833;SDS011;3962;42.696;23.354;2023-08-30T14:05:34;3.20;;;3.10;;
7833;SDS011;3962;42.696;23.354;2023-08-30T14:11:23;3.80;;;3.60;;
7833;SDS011;3962;42.696;23.354;2023-08-30T14:13:49;3.73;;;3.63;;
7833;SDS011;3962;42.696;23.354;2023-08-30T14:16:16;4.20;;;3.90;;
7833;SDS011;3962;42.696;23.354;2023-08-30T14:18:43;3.23;;;3.13;;
7833;SDS011;3962;42.696;23.354;2023-08-30T14:21:10;3.50;;;3.40;;
7833;SDS011;3962;42.696;23.354;2023-08-30T14:23:38;3.77;;;3.57;;
7833;SDS011;3962;42.696;23.354;2023-08-30T14:26:05;3.77;;;3.67;;
7833;SDS011;3962;42.696;23.354;2023-08-30T14:28:36;3.57;;;3.47;;
7833;SDS011;3962;42.696;23.354;2023-08-30T14:31:06;4.10;;;3.90;;
7833;SDS011;3962;42.696;23.354;2023-08-30T14:33:33;3.43;;;3.33;;
7833;SDS011;3962;42.696;23.354;2023-08-30T14:35:59;3.93;;;3.80;;
7833;SDS011;3962;42.696;23.354;2023-08-30T14:38:27;3.53;;;3.43;;
7833;SDS011;3962;42.696;23.354;2023-08-30T14:40:54;3.43;;;3.23;;
7833;SDS011;3962;42.696;23.354;2023-08-30T14:43:22;4.00;;;3.70;;
7833;SDS011;3962;42.696;23.354;2023-08-30T14:45:50;3.53;;;3.33;;
7833;SDS011;3962;42.696;23.354;2023-08-30T14:48:17;3.77;;;3.57;;
7833;SDS011;3962;42.696;23.354;2023-08-30T14:50:44;3.67;;;3.57;;
7833;SDS011;3962;42.696;23.354;2023-08-30T14:53:16;4.40;;;4.20;;
7833;SDS011;3962;42.696;23.354;2023-08-30T14:55:43;3.63;;;3.53;;
7833;SDS011;3962;42.696;23.354;2023-08-30T14:58:11;3.90;;;3.70;;
7833;SDS011;3962;42.696;23.354;2023-08-30T15:00:38;4.40;;;4.20;;
7833;SDS011;3962;42.696;23.354;2023-08-30T15:03:07;3.90;;;3.80;;
7833;SDS011;3962;42.696;23.354;2023-08-30T15:05:34;3.60;;;3.50;;
7833;SDS011;3962;42.696;23.354;2023-08-30T15:08:01;4.10;;;3.80;;
7833;SDS011;3962;42.696;23.354;2023-08-30T15:10:27;3.87;;;3.77;;